createdAt,value
2023-04-01T00:00:10.060Z,12.85
2023-04-01T00:03:00.289Z,12.71
2023-04-01T00:05:28.807Z,12.59
2023-04-01T00:07:57.124Z,12.56
2023-04-01T00:10:26.114Z,12.55
2023-04-01T00:12:54.879Z,12.58
2023-04-01T00:15:23.263Z,12.71
2023-04-01T00:17:54.829Z,12.83
2023-04-01T00:20:23.499Z,12.94
2023-04-01T00:22:52.274Z,13.03
2023-04-01T00:25:21.193Z,13.08
2023-04-01T00:27:49.889Z,13.02
2023-04-01T00:30:18.344Z,12.89
2023-04-01T00:32:47.327Z,12.82
2023-04-01T00:35:16.350Z,12.73
2023-04-01T00:37:44.766Z,12.76
2023-04-01T00:40:23.462Z,12.84
2023-04-01T00:42:52.265Z,12.91
2023-04-01T00:45:29.646Z,12.95
2023-04-01T00:48:00.739Z,13.03
2023-04-01T00:50:30.838Z,13.11
2023-04-01T00:53:00.178Z,13.19
2023-04-01T00:55:29.576Z,13.24
2023-04-01T00:57:58.698Z,13.22
2023-04-01T01:00:27.311Z,13.14
2023-04-01T01:02:56.043Z,13.13
2023-04-01T01:05:34.137Z,13.20
2023-04-01T01:08:09.202Z,13.30
2023-04-01T01:10:39.704Z,13.36
2023-04-01T01:13:12.910Z,13.37
2023-04-01T01:15:47.639Z,13.36
2023-04-01T01:18:21.182Z,13.39
2023-04-01T01:21:04.659Z,13.46
2023-04-01T01:23:47.526Z,13.50
2023-04-01T01:26:26.868Z,13.58
2023-04-01T01:29:02.913Z,13.58
2023-04-01T01:31:35.649Z,13.53
2023-04-01T01:34:10.324Z,13.43
2023-04-01T01:36:40.963Z,13.33
2023-04-01T01:39:11.977Z,13.37
2023-04-01T01:41:43.223Z,13.37
2023-04-01T01:44:14.161Z,13.30
2023-04-01T01:46:43.735Z,13.28
2023-04-01T01:49:13.551Z,13.24
2023-04-01T01:51:43.570Z,13.19
2023-04-01T01:54:14.566Z,13.14
2023-04-01T01:56:45.980Z,13.10
2023-04-01T01:59:16.007Z,13.06
2023-04-01T02:01:46.683Z,13.03
2023-04-01T02:04:16.351Z,13.03
2023-04-01T02:06:48.799Z,13.06
2023-04-01T02:09:17.576Z,13.18
2023-04-01T02:11:48.458Z,13.18
2023-04-01T02:14:18.735Z,13.09
2023-04-01T02:16:53.620Z,13.04
2023-04-01T02:19:23.771Z,12.95
2023-04-01T02:21:55.144Z,12.87
2023-04-01T02:24:24.852Z,12.77
2023-04-01T02:26:54.541Z,12.73
2023-04-01T02:29:25.597Z,12.75
2023-04-01T02:31:54.763Z,12.69
2023-04-01T02:34:24.342Z,12.64
2023-04-01T02:36:54.095Z,12.64
2023-04-01T02:39:23.151Z,12.63
2023-04-01T02:41:51.771Z,12.63
2023-04-01T02:44:20.158Z,12.64
2023-04-01T02:46:48.798Z,12.67
2023-04-01T02:49:18.605Z,12.70
2023-04-01T02:51:46.837Z,12.69
2023-04-01T02:54:15.728Z,12.63
2023-04-01T02:56:45.973Z,12.57
2023-04-01T02:59:14.881Z,12.51
2023-04-01T03:01:45.059Z,12.50
2023-04-01T03:04:16.209Z,12.52
2023-04-01T03:06:44.892Z,12.55
2023-04-01T03:09:14.815Z,12.54
2023-04-01T03:11:43.987Z,12.54
2023-04-01T03:14:13.336Z,12.60
2023-04-01T03:16:42.725Z,12.64
2023-04-01T03:19:11.120Z,12.70
2023-04-01T03:21:40.381Z,12.69
2023-04-01T03:24:08.864Z,12.63
2023-04-01T03:26:37.263Z,12.64
2023-04-01T03:29:05.826Z,12.70
2023-04-01T03:31:34.832Z,12.72
2023-04-01T03:34:03.301Z,12.72
2023-04-01T03:36:32.726Z,12.76
2023-04-01T03:39:01.203Z,12.79
2023-04-01T03:41:29.646Z,12.80
2023-04-01T03:43:58.125Z,12.82
2023-04-01T03:46:26.663Z,12.80
2023-04-01T03:48:55.319Z,12.74
2023-04-01T04:59:45.700Z,13.09
2023-04-01T05:02:16.611Z,13.16
2023-04-01T05:04:45.566Z,13.15
2023-04-01T05:07:14.512Z,13.12
2023-04-01T05:09:46.117Z,13.10
2023-04-01T05:12:15.451Z,13.12
2023-04-01T05:14:44.919Z,13.16
2023-04-01T05:17:15.796Z,13.12
2023-04-01T05:19:46.574Z,13.13
2023-04-01T05:22:16.542Z,13.19
2023-04-01T05:24:45.812Z,13.21
2023-04-01T05:27:18.849Z,13.27
2023-04-01T05:29:47.468Z,13.34
2023-04-01T05:32:16.044Z,13.39
2023-04-01T05:34:45.467Z,13.41
2023-04-01T05:37:14.662Z,13.48
2023-04-01T05:39:44.562Z,13.52
2023-04-01T05:42:14.309Z,13.54
2023-04-01T05:44:43.678Z,13.57
2023-04-01T05:47:12.026Z,13.69
2023-04-01T05:49:41.325Z,13.72
2023-04-01T05:52:10.104Z,13.73
2023-04-01T05:54:38.445Z,13.78
2023-04-01T05:57:06.738Z,13.78
2023-04-01T05:59:35.819Z,13.81
2023-04-01T06:02:04.066Z,13.84
2023-04-01T06:04:36.901Z,13.89
2023-04-01T06:07:11.768Z,13.93
2023-04-01T06:09:41.386Z,13.96
2023-04-01T06:12:26.826Z,14.06
2023-04-01T06:15:01.331Z,14.13
2023-04-01T06:17:50.375Z,14.15
2023-04-01T06:20:28.186Z,14.16
2023-04-01T06:23:15.148Z,14.20
2023-04-01T06:25:54.879Z,14.24
2023-04-01T06:28:34.673Z,14.29
2023-04-01T06:31:04.899Z,14.36
2023-04-01T06:33:43.950Z,14.40
2023-04-01T06:36:30.063Z,14.44
2023-04-01T06:39:17.206Z,14.48
2023-04-01T06:41:58.531Z,14.56
2023-04-01T06:44:31.414Z,14.63
2023-04-01T06:47:02.929Z,14.66
2023-04-01T06:49:49.935Z,14.67
2023-04-01T06:52:24.119Z,14.70
2023-04-01T06:54:54.808Z,14.74
2023-04-01T06:57:26.313Z,14.79
2023-04-01T06:59:59.242Z,14.87
2023-04-01T07:02:33.565Z,14.96
2023-04-01T07:05:03.006Z,14.95
2023-04-01T07:07:35.088Z,14.83
2023-04-01T07:10:05.674Z,14.79
2023-04-01T07:12:38.791Z,14.84
2023-04-01T07:15:13.953Z,14.97
2023-04-01T07:17:44.373Z,15.09
2023-04-01T07:20:17.018Z,15.18
2023-04-01T07:22:48.678Z,15.25
2023-04-01T07:25:18.438Z,15.29
2023-04-01T07:27:47.045Z,15.34
2023-04-01T07:30:18.623Z,15.38
2023-04-01T07:32:49.734Z,15.41
2023-04-01T07:35:27.757Z,15.39
2023-04-01T07:38:03.300Z,15.35
2023-04-01T07:40:39.056Z,15.41
2023-04-01T07:43:16.338Z,15.48
2023-04-01T07:45:48.284Z,15.49
2023-04-01T07:48:23.297Z,15.49
2023-04-01T07:50:58.389Z,15.47
2023-04-01T07:53:29.163Z,15.47
2023-04-01T07:56:03.854Z,15.56
2023-04-01T07:58:36.633Z,15.65
2023-04-01T08:01:10.194Z,15.74
2023-04-01T08:03:50.645Z,15.82
2023-04-01T08:06:21.327Z,15.73
2023-04-01T08:08:56.272Z,15.71
2023-04-01T08:11:32.422Z,15.81
2023-04-01T08:14:06.085Z,15.76
2023-04-01T08:16:39.403Z,15.48
2023-04-01T08:19:17.267Z,15.33
2023-04-01T08:21:48.305Z,15.27
2023-04-01T08:24:22.737Z,15.18
2023-04-01T08:26:54.703Z,15.20
2023-04-01T08:29:25.044Z,15.09
2023-04-01T08:31:57.623Z,14.98
2023-04-01T08:34:29.660Z,14.91
2023-04-01T08:37:04.711Z,14.76
2023-04-01T08:39:36.534Z,14.66
2023-04-01T08:42:15.205Z,14.63
2023-04-01T08:45:01.264Z,14.59
2023-04-01T08:47:42.771Z,14.72
2023-04-01T08:50:29.666Z,14.92
2023-04-01T08:53:04.849Z,15.09
2023-04-01T08:55:38.298Z,15.22
2023-04-01T08:58:23.414Z,15.33
2023-04-01T09:00:55.117Z,15.47
2023-04-01T09:03:40.276Z,15.61
2023-04-01T09:06:25.729Z,15.67
2023-04-01T09:09:03.152Z,15.76
2023-04-01T09:11:47.491Z,15.89
2023-04-01T09:14:49.875Z,16.02
2023-04-01T09:17:36.151Z,15.99
2023-04-01T09:20:18.638Z,15.93
2023-04-01T09:22:52.974Z,15.91
2023-04-01T09:25:38.453Z,15.93
2023-04-01T09:28:11.271Z,15.95
2023-04-01T09:30:50.095Z,15.89
2023-04-01T09:33:32.697Z,15.91
2023-04-01T09:36:08.750Z,15.86
2023-04-01T09:38:46.536Z,15.81
2023-04-01T09:41:22.486Z,15.80
2023-04-01T09:44:02.181Z,15.89
2023-04-01T09:46:37.132Z,15.93
2023-04-01T09:49:27.444Z,15.95
2023-04-01T09:52:03.871Z,16.00
2023-04-01T09:54:40.949Z,15.98
2023-04-01T09:57:28.538Z,15.69
2023-04-01T10:00:10.521Z,15.40
2023-04-01T10:03:04.143Z,15.10
2023-04-01T10:06:02.597Z,14.99
2023-04-01T10:08:53.872Z,14.86
2023-04-01T10:11:49.779Z,14.69
2023-04-01T10:14:28.523Z,14.63
2023-04-01T10:17:07.467Z,14.52
2023-04-01T10:20:01.958Z,14.45
2023-04-01T10:22:47.680Z,14.39
2023-04-01T10:25:35.965Z,14.39
2023-04-01T10:28:20.066Z,14.40
2023-04-01T10:31:07.896Z,14.45
2023-04-01T10:34:02.898Z,14.64
2023-04-01T10:36:52.748Z,14.61
2023-04-01T10:39:34.221Z,14.53
2023-04-01T10:42:19.538Z,14.56
2023-04-01T10:45:11.073Z,14.81
2023-04-01T10:48:08.917Z,15.13
2023-04-01T10:50:52.966Z,15.39
2023-04-01T10:53:42.019Z,15.61
2023-04-01T10:56:28.582Z,15.76
2023-04-01T10:59:16.029Z,15.92
2023-04-01T11:02:14.216Z,15.77
2023-04-01T11:05:21.849Z,15.61
2023-04-01T11:08:07.872Z,15.77
2023-04-01T11:11:05.889Z,16.02
2023-04-01T11:13:46.295Z,16.11
2023-04-01T11:16:34.916Z,16.11
2023-04-01T11:19:27.394Z,16.08
2023-04-01T11:22:10.845Z,16.06
2023-04-01T11:24:50.604Z,16.00
2023-04-01T11:27:25.203Z,16.07
2023-04-01T11:30:17.299Z,16.17
2023-04-01T11:32:51.290Z,16.10
2023-04-01T11:35:34.342Z,15.89
2023-04-01T11:38:08.951Z,15.84
2023-04-01T11:40:41.525Z,15.91
2023-04-01T11:43:26.355Z,15.95
2023-04-01T11:46:05.317Z,15.93
2023-04-01T11:48:43.387Z,16.04
2023-04-01T11:51:33.302Z,16.21
2023-04-01T11:54:05.907Z,16.40
2023-04-01T11:56:47.067Z,16.55
2023-04-01T11:59:40.729Z,16.71
2023-04-01T12:02:12.690Z,16.76
2023-04-01T12:04:48.907Z,16.69
2023-04-01T12:07:22.635Z,16.72
2023-04-01T12:09:54.515Z,16.87
2023-04-01T12:12:26.742Z,17.01
2023-04-01T12:15:01.521Z,17.11
2023-04-01T12:17:35.747Z,17.17
2023-04-01T12:20:16.805Z,17.29
2023-04-01T12:22:53.062Z,17.45
2023-04-01T12:25:32.307Z,17.54
2023-04-01T12:28:11.845Z,17.49
2023-04-01T12:30:56.851Z,17.38
2023-04-01T12:33:30.928Z,17.18
2023-04-01T12:36:08.161Z,17.03
2023-04-01T12:38:46.085Z,16.83
2023-04-01T12:41:20.334Z,16.73
2023-04-01T12:44:04.066Z,16.78
2023-04-01T12:46:36.475Z,16.71
2023-04-01T12:49:21.910Z,16.60
2023-04-01T12:51:57.086Z,16.40
2023-04-01T12:54:54.712Z,16.29
2023-04-01T12:57:31.933Z,16.40
2023-04-01T13:00:11.849Z,16.43
2023-04-01T13:02:50.625Z,16.32
2023-04-01T13:05:37.546Z,16.28
2023-04-01T13:08:28.659Z,16.25
2023-04-01T13:11:15.932Z,16.34
2023-04-01T13:14:03.066Z,16.48
2023-04-01T13:16:32.614Z,16.51
2023-04-01T13:19:05.317Z,16.40
2023-04-01T13:21:39.911Z,16.29
2023-04-01T13:24:12.948Z,16.21
2023-04-01T13:26:57.755Z,16.21
2023-04-01T13:29:31.163Z,16.31
2023-04-01T13:32:22.244Z,16.49
2023-04-01T13:35:01.986Z,16.63
2023-04-01T13:37:48.220Z,16.81
2023-04-01T13:40:24.028Z,16.85
2023-04-01T13:42:55.871Z,16.89
2023-04-01T13:45:27.613Z,16.90
2023-04-01T13:48:04.083Z,16.82
2023-04-01T13:50:52.516Z,16.73
2023-04-01T13:53:34.051Z,16.78
2023-04-01T13:56:09.005Z,16.73
2023-04-01T13:58:52.020Z,16.78
2023-04-01T14:01:26.164Z,16.85
2023-04-01T14:04:13.205Z,16.72
2023-04-01T14:06:50.816Z,16.54
2023-04-01T14:09:33.677Z,16.42
2023-04-01T14:12:06.952Z,16.21
2023-04-01T14:14:41.868Z,15.92
2023-04-01T14:17:26.129Z,15.77
2023-04-01T14:20:18.542Z,15.66
2023-04-01T14:22:54.482Z,15.58
2023-04-01T14:25:37.772Z,15.50
2023-04-01T14:28:13.859Z,15.49
2023-04-01T14:30:52.496Z,15.47
2023-04-01T14:33:27.876Z,15.50
2023-04-01T14:36:09.766Z,15.44
2023-04-01T14:38:44.002Z,15.40
2023-04-01T14:41:21.980Z,15.44
2023-04-01T14:44:05.665Z,15.52
2023-04-01T14:46:48.923Z,15.55
2023-04-01T14:49:21.586Z,15.61
2023-04-01T14:51:52.409Z,15.68
2023-04-01T14:54:23.459Z,15.69
2023-04-01T14:57:04.957Z,15.70
2023-04-01T14:59:33.962Z,15.61
2023-04-01T15:02:10.503Z,15.53
2023-04-01T15:04:57.070Z,15.36
2023-04-01T15:07:49.345Z,15.21
2023-04-01T15:10:30.976Z,15.05
2023-04-01T15:13:07.648Z,14.97
2023-04-01T15:15:47.335Z,14.89
2023-04-01T15:18:19.004Z,14.88
2023-04-01T15:21:07.513Z,14.86
2023-04-01T15:23:42.359Z,14.85
2023-04-01T15:26:18.229Z,14.88
2023-04-01T15:28:58.367Z,14.96
2023-04-01T15:31:30.225Z,15.11
2023-04-01T15:34:09.106Z,15.25
2023-04-01T15:36:42.211Z,15.38
2023-04-01T15:39:18.682Z,15.48
2023-04-01T15:41:51.758Z,15.57
2023-04-01T15:44:45.322Z,15.67
2023-04-01T15:47:34.712Z,15.76
2023-04-01T15:50:16.101Z,15.84
2023-04-01T15:52:51.211Z,15.92
2023-04-01T15:55:28.619Z,16.00
2023-04-01T15:58:06.442Z,16.09
2023-04-01T16:00:47.310Z,16.22
2023-04-01T16:03:26.242Z,16.20
2023-04-01T16:06:10.524Z,16.11
2023-04-01T16:09:04.520Z,16.01
2023-04-01T16:11:41.488Z,16.04
2023-04-01T16:14:19.427Z,16.14
2023-04-01T16:16:55.150Z,16.21
2023-04-01T16:19:29.113Z,16.17
2023-04-01T16:22:02.454Z,16.02
2023-04-01T16:24:40.532Z,15.88
2023-04-01T16:27:14.944Z,15.73
2023-04-01T16:29:46.366Z,15.69
2023-04-01T16:32:29.570Z,15.66
2023-04-01T16:35:05.097Z,15.66
2023-04-01T16:37:40.463Z,15.75
2023-04-01T16:40:19.370Z,15.79
2023-04-01T16:42:51.815Z,15.83
2023-04-01T16:45:32.076Z,15.78
2023-04-01T16:48:06.553Z,15.62
2023-04-01T16:50:43.608Z,15.50
2023-04-01T16:53:18.618Z,15.45
2023-04-01T16:55:50.127Z,15.40
2023-04-01T16:58:24.309Z,15.26
2023-04-01T17:00:56.337Z,15.03
2023-04-01T17:03:43.116Z,14.79
2023-04-01T17:06:22.080Z,14.64
2023-04-01T17:09:02.906Z,14.56
2023-04-01T17:11:34.824Z,14.53
2023-04-01T17:14:09.845Z,14.47
2023-04-01T17:16:56.389Z,14.48
2023-04-01T17:19:30.749Z,14.48
2023-04-01T17:22:03.266Z,14.49
2023-04-01T17:24:41.667Z,14.50
2023-04-01T17:27:15.503Z,14.56
2023-04-01T17:29:57.380Z,14.70
2023-04-01T17:32:33.568Z,14.82
2023-04-01T17:35:08.198Z,14.94
2023-04-01T17:37:46.683Z,15.05
2023-04-01T17:40:27.439Z,15.11
2023-04-01T17:43:13.427Z,15.04
2023-04-01T17:45:45.857Z,14.97
2023-04-01T17:48:21.030Z,14.99
2023-04-01T17:51:07.752Z,15.07
2023-04-01T17:53:43.009Z,15.04
2023-04-01T17:56:16.264Z,15.05
2023-04-01T17:58:47.446Z,15.01
2023-04-01T18:01:31.699Z,14.93
2023-04-01T18:04:08.683Z,14.88
2023-04-01T18:06:50.286Z,14.85
2023-04-01T18:09:26.642Z,14.81
2023-04-01T18:12:01.385Z,14.81
2023-04-01T18:14:45.229Z,14.79
2023-04-01T18:17:24.938Z,14.68
2023-04-01T18:20:03.201Z,14.49
2023-04-01T18:22:39.117Z,14.31
2023-04-01T18:25:14.935Z,14.16
2023-04-01T18:27:50.948Z,14.03
2023-04-01T18:30:22.182Z,13.95
2023-04-01T18:32:55.697Z,13.87
2023-04-01T18:35:34.498Z,13.85
2023-04-01T18:38:06.133Z,13.80
2023-04-01T18:40:37.867Z,13.75
2023-04-01T18:43:19.248Z,13.72
2023-04-01T18:45:52.883Z,13.74
2023-04-01T18:48:35.473Z,13.80
2023-04-01T18:51:11.916Z,13.86
2023-04-01T18:53:43.705Z,13.92
2023-04-01T18:56:16.561Z,13.96
2023-04-01T18:58:52.539Z,14.00
2023-04-01T19:01:26.123Z,14.01
2023-04-01T19:03:58.527Z,13.97
2023-04-01T19:06:30.433Z,13.92
2023-04-01T19:09:11.183Z,13.88
2023-04-01T19:11:50.548Z,13.83
2023-04-01T19:14:27.661Z,13.74
2023-04-01T19:17:02.604Z,13.68
2023-04-01T19:19:47.622Z,13.67
2023-04-01T19:22:23.906Z,13.60
2023-04-01T19:25:12.301Z,13.47
2023-04-01T19:27:48.331Z,13.34
2023-04-01T19:30:25.489Z,13.27
2023-04-01T19:33:08.928Z,13.21
2023-04-01T19:35:44.071Z,13.17
2023-04-01T19:38:22.584Z,13.15
2023-04-01T19:41:05.193Z,13.15
2023-04-01T19:43:45.776Z,13.11
2023-04-01T19:46:20.153Z,13.09
2023-04-01T19:49:04.792Z,13.07
2023-04-01T19:51:49.348Z,13.05
2023-04-01T19:54:23.477Z,13.01
2023-04-01T19:57:00.288Z,12.98
2023-04-01T19:59:35.776Z,12.98
2023-04-01T20:02:19.408Z,12.93
2023-04-01T20:04:49.685Z,12.89
2023-04-01T20:07:29.776Z,12.85
2023-04-01T20:10:06.529Z,12.83
2023-04-01T20:12:43.553Z,12.81
2023-04-01T20:15:29.215Z,12.81
2023-04-01T20:18:02.698Z,12.81
2023-04-01T20:20:35.363Z,12.79
2023-04-01T20:23:28.508Z,12.77
2023-04-01T20:26:03.805Z,12.80
2023-04-01T20:28:39.169Z,12.87
2023-04-01T20:31:19.419Z,12.90
2023-04-01T20:34:11.175Z,12.93
2023-04-01T20:36:54.328Z,12.98
2023-04-01T20:39:43.801Z,13.01
2023-04-01T20:42:35.632Z,13.00
2023-04-01T20:45:18.012Z,12.99
2023-04-01T20:47:55.792Z,12.97
2023-04-01T20:50:31.980Z,12.96
2023-04-01T20:53:06.117Z,12.92
2023-04-01T20:55:58.043Z,12.87
2023-04-01T20:58:33.859Z,12.88
2023-04-01T21:01:10.214Z,12.90
2023-04-01T21:03:46.162Z,12.96
2023-04-01T21:06:34.275Z,12.95
2023-04-01T21:09:13.367Z,12.96
2023-04-01T21:11:48.433Z,12.95
2023-04-01T21:14:31.271Z,12.94
2023-04-01T21:17:04.532Z,12.93
2023-04-01T21:19:44.174Z,12.91
2023-04-01T21:22:24.352Z,12.85
2023-04-01T21:25:13.093Z,12.77
2023-04-01T21:27:50.867Z,12.69
2023-04-01T21:30:38.782Z,12.61
2023-04-01T21:33:17.103Z,12.55
2023-04-01T21:35:53.193Z,12.55
2023-04-01T21:38:34.418Z,12.58
2023-04-01T21:41:15.442Z,12.56
2023-04-01T21:43:58.735Z,12.53
2023-04-01T21:46:46.281Z,12.44
2023-04-01T21:49:26.977Z,12.41
2023-04-01T21:52:11.309Z,12.37
2023-04-01T21:54:54.763Z,12.36
2023-04-01T21:57:59.350Z,12.39
2023-04-01T22:00:34.502Z,12.34
2023-04-01T22:03:27.248Z,12.30
2023-04-01T22:06:02.379Z,12.26
2023-04-01T22:08:43.762Z,12.25
2023-04-01T22:11:17.808Z,12.21
2023-04-01T22:13:51.215Z,12.21
2023-04-01T22:16:26.151Z,12.23
2023-04-01T22:19:07.769Z,12.18
2023-04-01T22:21:43.169Z,12.12
2023-04-01T22:24:13.960Z,12.02
2023-04-01T22:26:46.987Z,11.96
2023-04-01T22:29:18.915Z,11.96
2023-04-01T22:31:50.960Z,11.98
2023-04-01T22:34:32.816Z,11.96
2023-04-01T22:37:10.209Z,11.95
2023-04-01T22:39:49.131Z,11.94
2023-04-01T22:42:27.026Z,11.91
2023-04-01T22:45:04.795Z,11.87
2023-04-01T22:47:43.364Z,11.85
2023-04-01T22:50:20.584Z,11.84
2023-04-01T22:52:57.856Z,11.82
2023-04-01T22:55:34.173Z,11.78
2023-04-01T22:58:11.358Z,11.75
2023-04-01T23:00:44.349Z,11.75
2023-04-01T23:03:17.932Z,11.75
2023-04-01T23:05:56.708Z,11.75
2023-04-01T23:09:00.920Z,11.77
2023-04-01T23:11:40.173Z,11.76
2023-04-01T23:14:46.924Z,11.73
2023-04-01T23:17:26.814Z,11.60
2023-04-01T23:20:11.004Z,11.52
2023-04-01T23:23:00.421Z,11.39
2023-04-01T23:26:03.637Z,11.27
2023-04-01T23:28:46.545Z,11.18
2023-04-01T23:31:42.994Z,11.15
2023-04-01T23:34:22.987Z,11.13
2023-04-01T23:36:56.380Z,11.10
2023-04-01T23:39:29.242Z,11.08
2023-04-01T23:42:03.847Z,11.05
2023-04-01T23:44:38.715Z,11.03
2023-04-01T23:47:27.197Z,11.00
2023-04-01T23:50:05.159Z,10.96
2023-04-01T23:52:41.470Z,10.89
2023-04-01T23:55:15.324Z,10.83
2023-04-01T23:58:01.207Z,10.78
